Aérodrome :
LOGIN :

S'inscrire | Disclaimer

   EN    FR    IT 

 










Légende :    VFR   VFR Marginal   IFR   IFR Intensif   IFR Très Intensif
Visi : 
Plafond : 
>= 8 km
>= 3000ft
5 à 8 km
1000 à 3000 ft
1500m à 5 km
500 à 1000 ft
800 à 1500m
200 à 500 ft
< 800m
< 200 ft
Symboles :   Orages  Brouillard  Fortes neiges  Fortes précipitations  Vent > 20 kt
SIGMETs :   Divers  Orages  Givrage  Turbulence  Onde Orograph.  Cendres Volcan.






- Altitude de l'aérodrome : 12 ft
- Code IATA : NCE


LFMN - Nice

DERNIER METAR :
  • 130730Z 33011KT 5000 -RA BKN015 BKN030 06/04 Q0990 NOSIG

METARs EXPIRÉS :
  • 130700Z 32009KT 7000 -RA SCT015 BKN030 06/04 Q0991 NOSIG
  • 130630Z 32011KT 9999 -RA BKN033 06/03 Q0992 NOSIG
  • 130600Z 33010KT 9999 -RA SCT040 BKN070 06/03 Q0992 WS ALL RWY NOSIG
  • 130535Z 33009KT 9999 -RA SCT040 BKN070 06/03 Q0993 NOSIG
  • 130500Z 34008KT 9999 SCT066 BKN076 06/02 Q0993 NOSIG

TAF AMD TAF LFMN
Valide du 13 à 07h jusqu'au 14 à 09h UTC


130745Z 1307/1409 34010KT 9999 SCT100
TEMPO 1307/1310 4000 RA BKN015 BKN030
BECMG 1310/1312 26025G35KT CAVOK
TEMPO 1320/1323 26012KT
ATIS : +33 4 93 17 21 16



MET'MAP, la Météo Aéronautique d'un coup d'oeil ! - Copyright ORBIFLY Décembre 2007 - Disclaimer

ORBIFLY MET'MAP TEAM :

Programmation & Développement : Alexandra Zaïnal
Sur une idée originale de : Baudouin d'Aumeries
Assistance à la programmation : Marc-Olivier Méhu
Soutien technique & logistique : Manuel Goepfert

Contact : metmap@orbifly.com




SOURCES & CREDITS :

   NOAA